createdAt,value
2022-07-26T00:01:18.133Z,22.40
2022-07-26T00:03:45.316Z,22.40
2022-07-26T00:06:12.256Z,22.30
2022-07-26T00:08:39.288Z,22.30
2022-07-26T00:11:07.311Z,22.30
2022-07-26T00:13:35.155Z,22.30
2022-07-26T00:16:02.681Z,22.20
2022-07-26T00:18:29.627Z,22.10
2022-07-26T00:20:56.594Z,22.10
2022-07-26T00:39:14.222Z,21.90
2022-07-26T00:41:41.081Z,22.00
2022-07-26T00:44:08.124Z,21.90
2022-07-26T00:50:59.787Z,21.80
2022-07-26T00:53:26.734Z,21.80
2022-07-26T00:55:53.762Z,21.90
2022-07-26T00:58:20.592Z,21.90
2022-07-26T01:00:47.793Z,21.90
2022-07-26T01:03:14.805Z,21.90
2022-07-26T01:05:42.689Z,21.80
2022-07-26T01:08:09.714Z,21.80
2022-07-26T01:10:36.703Z,21.80
2022-07-26T01:13:03.559Z,21.80
2022-07-26T01:15:30.652Z,21.80
2022-07-26T01:17:57.489Z,21.70
2022-07-26T01:20:24.438Z,21.70
2022-07-26T01:22:51.388Z,21.70
2022-07-26T01:25:28.582Z,21.70
2022-07-26T01:27:55.537Z,21.70
2022-07-26T01:30:22.689Z,21.70
2022-07-26T01:32:49.634Z,21.70
2022-07-26T01:35:16.563Z,21.70
2022-07-26T01:37:43.289Z,21.70
2022-07-26T01:40:10.651Z,21.70
2022-07-26T01:42:40.846Z,21.70
2022-07-26T01:49:01.962Z,21.70
2022-07-26T01:51:29.055Z,21.70
2022-07-26T01:53:58.969Z,21.70
2022-07-26T01:56:26.178Z,21.70
2022-07-26T01:58:53.166Z,21.70
2022-07-26T02:01:38.053Z,21.70
2022-07-26T02:04:05.975Z,21.70
2022-07-26T02:06:34.350Z,21.80
2022-07-26T02:09:01.949Z,21.80
2022-07-26T02:11:28.837Z,21.80
2022-07-26T02:13:55.533Z,21.70
2022-07-26T02:16:22.701Z,21.70
2022-07-26T02:18:49.633Z,21.70
2022-07-26T02:21:16.569Z,21.70
2022-07-26T02:23:43.841Z,21.60
2022-07-26T02:26:10.663Z,21.60
2022-07-26T02:28:37.415Z,21.60
2022-07-26T02:31:04.512Z,21.60
2022-07-26T02:33:31.810Z,21.60
2022-07-26T02:35:58.799Z,21.50
2022-07-26T02:38:25.809Z,21.40
2022-07-26T02:40:52.976Z,21.40
2022-07-26T02:43:39.597Z,21.40
2022-07-26T02:53:55.619Z,21.10
2022-07-26T02:56:22.888Z,21.00
2022-07-26T02:58:50.121Z,20.80
2022-07-26T03:01:17.200Z,20.70
2022-07-26T03:03:50.166Z,20.70
2022-07-26T03:06:18.379Z,20.70
2022-07-26T03:08:45.721Z,20.60
2022-07-26T03:11:12.535Z,20.50
2022-07-26T03:13:39.561Z,20.40
2022-07-26T03:16:13.782Z,20.40
2022-07-26T03:18:45.252Z,20.40
2022-07-26T03:21:12.498Z,20.30
2022-07-26T03:23:39.608Z,20.40
2022-07-26T03:26:06.594Z,20.20
2022-07-26T03:28:46.568Z,20.20
2022-07-26T03:31:13.864Z,20.00
2022-07-26T03:33:41.360Z,20.00
2022-07-26T03:36:11.265Z,19.90
2022-07-26T03:38:41.041Z,19.70
2022-07-26T03:41:08.209Z,19.70
2022-07-26T03:43:40.211Z,19.70
2022-07-26T03:50:02.292Z,19.60
2022-07-26T03:52:47.842Z,19.50
2022-07-26T03:55:52.310Z,19.40
2022-07-26T03:58:19.872Z,19.40
2022-07-26T04:00:52.858Z,19.20
2022-07-26T04:03:22.585Z,19.20
2022-07-26T04:05:52.721Z,19.20
2022-07-26T04:08:19.717Z,19.10
2022-07-26T04:10:52.445Z,19.10
2022-07-26T04:13:24.165Z,19.00
2022-07-26T04:15:51.115Z,19.10
2022-07-26T04:18:42.614Z,19.00
2022-07-26T04:21:09.435Z,18.90
2022-07-26T04:23:36.226Z,18.90
2022-07-26T04:26:03.300Z,18.90
2022-07-26T04:28:30.466Z,18.90
2022-07-26T04:31:00.445Z,18.90
2022-07-26T04:33:30.678Z,18.90
2022-07-26T04:35:57.488Z,18.90
2022-07-26T04:38:28.678Z,18.90
2022-07-26T04:40:56.305Z,18.90
2022-07-26T04:43:23.017Z,18.90
2022-07-26T04:45:49.944Z,18.90
2022-07-26T04:52:10.373Z,18.90
2022-07-26T04:54:37.291Z,18.80
2022-07-26T04:57:04.212Z,18.90
2022-07-26T04:59:32.574Z,18.90
2022-07-26T05:02:00.079Z,18.90
2022-07-26T05:04:27.130Z,18.90
2022-07-26T05:06:53.934Z,18.90
2022-07-26T05:09:20.719Z,18.90
2022-07-26T05:11:47.451Z,18.90
2022-07-26T05:14:14.270Z,18.90
2022-07-26T05:16:44.282Z,18.90
2022-07-26T05:19:11.783Z,18.90
2022-07-26T05:21:38.824Z,18.90
2022-07-26T05:24:10.773Z,19.00
2022-07-26T05:26:37.842Z,18.90
2022-07-26T05:29:04.589Z,19.00
2022-07-26T05:31:31.352Z,18.90
2022-07-26T05:33:58.157Z,18.90
2022-07-26T05:36:26.688Z,19.00
2022-07-26T05:38:53.479Z,19.00
2022-07-26T05:41:20.233Z,19.00
2022-07-26T05:43:48.284Z,19.00
2022-07-26T05:46:19.607Z,19.10
2022-07-26T05:56:54.195Z,19.20
2022-07-26T05:59:21.179Z,19.20
2022-07-26T06:01:47.872Z,19.30
2022-07-26T06:04:17.245Z,19.30
2022-07-26T06:06:46.749Z,19.30
2022-07-26T06:09:24.066Z,19.30
2022-07-26T06:11:51.987Z,19.30
2022-07-26T06:14:19.210Z,19.30
2022-07-26T06:16:47.162Z,19.30
2022-07-26T06:19:14.237Z,19.40
2022-07-26T06:21:45.624Z,19.40
2022-07-26T06:24:12.897Z,19.50
2022-07-26T06:26:39.923Z,19.50
2022-07-26T06:29:06.621Z,19.60
2022-07-26T06:31:33.845Z,19.60
2022-07-26T06:34:00.910Z,19.70
2022-07-26T06:36:33.081Z,19.70
2022-07-26T06:39:00.041Z,19.70
2022-07-26T06:41:26.919Z,19.80
2022-07-26T06:43:53.872Z,19.80
2022-07-26T06:46:21.377Z,19.80
2022-07-26T06:49:26.462Z,19.90
2022-07-26T06:51:58.195Z,19.90
2022-07-26T06:54:25.047Z,20.00
2022-07-26T06:56:51.956Z,20.00
2022-07-26T06:59:18.677Z,20.00
2022-07-26T07:01:58.551Z,20.00
2022-07-26T07:04:31.938Z,20.00
2022-07-26T07:07:05.135Z,20.10
2022-07-26T07:09:40.577Z,20.10
2022-07-26T07:12:09.623Z,20.10
2022-07-26T07:14:44.554Z,20.20
2022-07-26T07:17:15.959Z,20.30
2022-07-26T07:19:46.933Z,20.30
2022-07-26T07:22:13.777Z,20.30
2022-07-26T07:24:41.433Z,20.30
2022-07-26T07:27:09.102Z,20.40
2022-07-26T07:29:37.490Z,20.40
2022-07-26T07:32:04.571Z,20.50
2022-07-26T07:34:32.514Z,20.60
2022-07-26T07:36:59.433Z,20.60
2022-07-26T07:39:34.591Z,20.60
2022-07-26T07:42:05.600Z,20.70
2022-07-26T07:44:32.956Z,20.70
2022-07-26T07:47:03.624Z,20.70
2022-07-26T07:50:09.875Z,20.70
2022-07-26T07:52:36.757Z,20.80
2022-07-26T07:55:40.467Z,20.90
2022-07-26T07:58:02.741Z,20.90
2022-07-26T08:00:37.886Z,20.90
2022-07-26T08:03:05.362Z,21.00
2022-07-26T08:05:33.361Z,21.00
2022-07-26T08:08:05.730Z,21.10
2022-07-26T08:10:49.084Z,21.20
2022-07-26T08:13:24.399Z,21.20
2022-07-26T08:15:52.171Z,21.30
2022-07-26T08:18:19.653Z,21.40
2022-07-26T08:20:52.966Z,21.60
2022-07-26T08:23:27.101Z,21.60
2022-07-26T08:25:59.675Z,21.50
2022-07-26T08:28:48.406Z,21.60
2022-07-26T08:31:16.465Z,21.80
2022-07-26T08:33:45.834Z,21.80
2022-07-26T08:36:17.788Z,21.80
2022-07-26T08:38:44.855Z,21.80
2022-07-26T08:41:14.342Z,22.00
2022-07-26T08:43:52.133Z,22.10
2022-07-26T08:46:33.215Z,22.20
2022-07-26T08:53:27.590Z,22.30
2022-07-26T08:56:07.057Z,22.70
2022-07-26T08:58:35.545Z,22.90
2022-07-26T09:01:07.808Z,22.80
2022-07-26T09:03:38.954Z,22.90
2022-07-26T09:06:18.710Z,22.90
2022-07-26T09:08:47.009Z,23.10
2022-07-26T09:11:27.794Z,23.30
2022-07-26T09:13:56.181Z,23.40
2022-07-26T09:16:26.669Z,23.60
2022-07-26T09:18:54.016Z,23.50
2022-07-26T09:21:54.202Z,23.60
2022-07-26T09:24:37.571Z,24.10
2022-07-26T09:27:06.231Z,24.70
2022-07-26T09:29:50.454Z,24.60
2022-07-26T09:32:19.798Z,24.20
2022-07-26T09:34:53.351Z,24.90
2022-07-26T09:37:49.602Z,25.50
2022-07-26T09:40:18.309Z,25.80
2022-07-26T09:42:55.357Z,25.90
2022-07-26T09:45:22.154Z,26.20
2022-07-26T09:47:48.926Z,27.20
2022-07-26T09:54:43.142Z,27.60
2022-07-26T09:57:10.630Z,28.00
2022-07-26T09:59:43.117Z,27.50
2022-07-26T10:02:10.505Z,27.70
2022-07-26T10:04:42.639Z,28.50
2022-07-26T10:07:09.813Z,29.00
2022-07-26T10:09:45.031Z,29.20
2022-07-26T10:12:14.177Z,29.60
2022-07-26T10:14:42.618Z,29.70
2022-07-26T10:17:29.191Z,29.50
2022-07-26T10:20:03.015Z,29.50
2022-07-26T10:22:36.197Z,29.20
2022-07-26T10:25:18.215Z,29.00
2022-07-26T10:27:46.211Z,29.30
2022-07-26T10:30:22.711Z,28.60
2022-07-26T10:32:59.872Z,28.30
2022-07-26T10:35:31.789Z,28.00
2022-07-26T10:38:00.076Z,27.70
2022-07-26T10:40:30.323Z,27.50
2022-07-26T10:43:39.678Z,27.50
2022-07-26T10:46:16.176Z,27.80
2022-07-26T10:48:59.731Z,28.50
2022-07-26T10:52:04.465Z,28.80
2022-07-26T10:54:31.231Z,29.40
2022-07-26T10:56:58.232Z,30.20
2022-07-26T10:59:54.236Z,29.60
2022-07-26T11:02:19.508Z,29.70
2022-07-26T11:04:46.676Z,29.60
2022-07-26T11:07:13.468Z,29.40
2022-07-26T11:09:41.186Z,29.30
2022-07-26T11:12:17.946Z,29.30
2022-07-26T11:14:48.271Z,29.20
2022-07-26T11:17:24.561Z,29.20
2022-07-26T11:19:51.688Z,29.60
2022-07-26T11:22:18.642Z,29.40
2022-07-26T11:24:45.471Z,30.30
2022-07-26T11:27:12.559Z,30.10
2022-07-26T11:29:41.039Z,29.00
2022-07-26T11:32:18.106Z,29.20
2022-07-26T11:34:45.771Z,29.60
2022-07-26T11:37:13.037Z,29.90
2022-07-26T11:39:40.051Z,30.00
2022-07-26T11:42:08.559Z,30.10
2022-07-26T11:44:36.006Z,30.30
2022-07-26T11:47:12.753Z,29.80
2022-07-26T11:53:22.862Z,29.40
2022-07-26T11:55:49.640Z,29.60
2022-07-26T11:58:16.502Z,29.60
2022-07-26T12:00:43.314Z,29.70
2022-07-26T12:03:10.016Z,30.30
2022-07-26T12:05:36.926Z,30.80
2022-07-26T12:08:05.283Z,30.50
2022-07-26T12:10:32.180Z,29.80
2022-07-26T12:13:15.278Z,29.60
2022-07-26T12:15:49.682Z,29.60
2022-07-26T12:18:28.689Z,29.90
2022-07-26T12:21:09.392Z,30.20
2022-07-26T12:23:40.519Z,30.50
2022-07-26T12:26:19.674Z,30.30
2022-07-26T12:28:46.465Z,29.70
2022-07-26T12:31:42.838Z,29.60
2022-07-26T12:34:10.022Z,29.90
2022-07-26T12:36:36.953Z,29.50
2022-07-26T12:39:04.927Z,29.00
2022-07-26T12:41:32.700Z,28.80
2022-07-26T12:44:00.059Z,28.10
2022-07-26T12:46:27.144Z,27.90
2022-07-26T12:48:59.717Z,28.10
2022-07-26T12:55:46.195Z,28.80
2022-07-26T12:58:12.982Z,29.00
2022-07-26T13:00:39.755Z,29.00
2022-07-26T13:03:06.516Z,28.90
2022-07-26T13:05:33.340Z,28.20
2022-07-26T13:08:00.115Z,28.30
2022-07-26T13:10:35.657Z,28.30
2022-07-26T13:13:03.660Z,28.70
2022-07-26T13:15:36.512Z,28.90
2022-07-26T13:18:07.990Z,29.30
2022-07-26T13:20:36.723Z,29.70
2022-07-26T13:23:03.877Z,29.30
2022-07-26T13:25:38.295Z,29.10
2022-07-26T13:28:07.141Z,28.60
2022-07-26T13:30:34.087Z,28.90
2022-07-26T13:33:00.890Z,29.60
2022-07-26T13:35:28.195Z,29.80
2022-07-26T13:37:55.080Z,29.90
2022-07-26T13:40:22.026Z,30.30
2022-07-26T13:42:50.099Z,30.50
2022-07-26T13:45:16.928Z,31.00
2022-07-26T13:47:43.867Z,31.40
2022-07-26T13:50:10.896Z,31.10
2022-07-26T13:56:56.385Z,31.50
2022-07-26T13:59:23.392Z,31.10
2022-07-26T14:01:50.344Z,30.80
2022-07-26T14:04:17.283Z,30.30
2022-07-26T14:06:44.248Z,29.80
2022-07-26T14:09:11.479Z,29.40
2022-07-26T14:11:38.873Z,29.30
2022-07-26T14:14:06.293Z,29.10
2022-07-26T14:16:33.622Z,29.10
2022-07-26T14:19:00.571Z,29.20
2022-07-26T14:21:28.307Z,29.00
2022-07-26T14:23:55.397Z,28.80
2022-07-26T14:26:22.436Z,28.70
2022-07-26T14:28:49.411Z,28.70
2022-07-26T14:31:16.975Z,28.80
2022-07-26T14:33:44.405Z,28.80
2022-07-26T14:36:16.080Z,29.00
2022-07-26T14:38:43.578Z,29.20
2022-07-26T14:41:11.484Z,29.50
2022-07-26T14:43:38.685Z,30.30
2022-07-26T14:46:15.665Z,30.70
2022-07-26T14:48:53.993Z,30.60
2022-07-26T14:51:59.720Z,31.00
2022-07-26T14:54:26.568Z,31.30
2022-07-26T14:56:53.888Z,32.50
2022-07-26T14:59:23.681Z,31.80
2022-07-26T15:01:54.023Z,31.30
2022-07-26T15:12:34.639Z,32.90
2022-07-26T15:15:04.642Z,33.10
2022-07-26T15:17:31.744Z,32.60
2022-07-26T15:19:59.091Z,32.70
2022-07-26T15:22:26.783Z,33.40
2022-07-26T15:24:56.967Z,34.50
2022-07-26T15:27:23.981Z,34.60
2022-07-26T15:29:51.218Z,34.40
2022-07-26T15:32:21.735Z,34.70
2022-07-26T15:34:49.284Z,35.00
2022-07-26T15:37:16.333Z,34.80
2022-07-26T15:39:43.540Z,34.70
2022-07-26T15:42:11.891Z,34.00
2022-07-26T15:44:45.414Z,33.50
2022-07-26T15:47:22.047Z,32.80
2022-07-26T15:50:05.076Z,32.10
2022-07-26T15:53:09.858Z,31.90
2022-07-26T15:55:37.113Z,31.50
2022-07-26T15:58:06.905Z,31.00
2022-07-26T16:00:35.219Z,30.70
2022-07-26T16:03:05.523Z,30.40
2022-07-26T16:05:33.400Z,30.20
2022-07-26T16:08:00.580Z,30.20
2022-07-26T16:10:27.496Z,30.10
2022-07-26T16:12:54.296Z,30.10
2022-07-26T16:15:21.105Z,30.50
2022-07-26T16:17:47.818Z,30.50
2022-07-26T16:20:15.858Z,30.90
2022-07-26T16:22:42.719Z,31.10
2022-07-26T16:25:09.703Z,31.20
2022-07-26T16:27:36.378Z,31.60
2022-07-26T16:30:03.215Z,32.40
2022-07-26T16:32:29.958Z,32.60
2022-07-26T16:34:56.722Z,32.60
2022-07-26T16:37:23.542Z,32.10
2022-07-26T16:39:50.517Z,32.60
2022-07-26T16:42:17.311Z,33.40
2022-07-26T16:44:44.356Z,33.90
2022-07-26T16:47:11.502Z,33.90
2022-07-26T16:49:42.566Z,33.50
2022-07-26T16:52:09.668Z,32.90
2022-07-26T16:58:55.305Z,31.40
2022-07-26T17:01:22.149Z,30.80
2022-07-26T17:03:48.927Z,30.40
2022-07-26T17:08:43.384Z,29.00
2022-07-26T17:11:10.435Z,28.80
2022-07-26T17:13:37.387Z,28.80
2022-07-26T17:16:04.246Z,29.30
2022-07-26T17:18:31.073Z,29.50
2022-07-26T17:20:58.189Z,29.40
2022-07-26T17:23:24.959Z,29.40
2022-07-26T17:25:51.721Z,29.50
2022-07-26T17:28:18.584Z,29.50
2022-07-26T17:30:45.331Z,29.30
2022-07-26T17:33:12.197Z,29.30
2022-07-26T17:35:39.088Z,29.40
2022-07-26T17:38:05.787Z,29.50
2022-07-26T17:40:34.674Z,29.50
2022-07-26T17:43:01.479Z,29.50
2022-07-26T17:45:28.244Z,29.70
2022-07-26T17:47:54.977Z,29.90
2022-07-26T17:50:38.602Z,29.90
2022-07-26T17:57:24.778Z,29.00
2022-07-26T17:59:51.842Z,28.80
2022-07-26T18:02:18.730Z,28.30
2022-07-26T18:04:45.881Z,27.80
2022-07-26T18:07:12.632Z,27.50
2022-07-26T18:09:39.427Z,27.10
2022-07-26T18:12:06.474Z,27.10
2022-07-26T18:14:33.289Z,26.90
2022-07-26T18:16:59.958Z,26.80
2022-07-26T18:19:26.691Z,26.80
2022-07-26T18:21:53.541Z,26.60
2022-07-26T18:24:20.272Z,26.60
2022-07-26T18:26:47.021Z,26.60
2022-07-26T18:29:15.254Z,26.40
2022-07-26T18:31:42.472Z,26.20
2022-07-26T18:34:09.422Z,26.10
2022-07-26T18:36:36.156Z,26.10
2022-07-26T18:39:03.207Z,25.90
2022-07-26T18:41:30.519Z,25.70
2022-07-26T18:43:59.402Z,25.60
2022-07-26T18:46:26.259Z,25.50
2022-07-26T18:48:53.239Z,25.50
2022-07-26T18:51:22.070Z,25.50
2022-07-26T18:54:31.121Z,25.70
2022-07-26T18:56:58.074Z,25.60
2022-07-26T18:59:24.847Z,25.80
2022-07-26T19:01:51.651Z,25.70
2022-07-26T19:04:19.468Z,25.80
2022-07-26T19:06:49.077Z,25.80
2022-07-26T19:09:16.656Z,25.80
2022-07-26T19:11:45.869Z,26.10
2022-07-26T19:14:13.053Z,25.80
2022-07-26T19:16:39.791Z,25.40
2022-07-26T19:19:06.557Z,25.60
2022-07-26T19:21:33.351Z,26.20
2022-07-26T19:24:00.214Z,26.60
2022-07-26T19:26:27.712Z,26.60
2022-07-26T19:28:54.583Z,26.20
2022-07-26T19:31:22.063Z,26.00
2022-07-26T19:33:49.153Z,26.10
2022-07-26T19:36:22.706Z,26.70
2022-07-26T19:38:53.862Z,26.70
2022-07-26T19:41:20.613Z,26.60
2022-07-26T19:43:47.429Z,26.20
2022-07-26T19:46:14.457Z,26.40
2022-07-26T19:48:41.263Z,26.40
2022-07-26T19:51:07.976Z,26.50
2022-07-26T19:53:34.756Z,26.40
2022-07-26T20:00:20.542Z,26.20
2022-07-26T20:02:47.490Z,26.50
2022-07-26T20:05:14.369Z,26.50
2022-07-26T20:07:41.317Z,25.90
2022-07-26T20:10:11.733Z,25.50
2022-07-26T20:12:38.871Z,25.70
2022-07-26T20:15:07.409Z,26.10
2022-07-26T20:17:35.739Z,25.60
2022-07-26T20:20:03.673Z,26.20
2022-07-26T20:22:30.529Z,26.20
2022-07-26T20:24:57.264Z,26.10
2022-07-26T20:27:24.410Z,25.60
2022-07-26T20:29:51.539Z,26.10
2022-07-26T20:32:18.320Z,25.80
2022-07-26T20:34:45.302Z,25.70
2022-07-26T20:37:13.944Z,25.50
2022-07-26T20:39:40.596Z,25.80
2022-07-26T20:42:09.376Z,25.90
2022-07-26T20:44:42.039Z,25.80
2022-07-26T20:47:10.312Z,26.10
2022-07-26T20:49:37.167Z,26.00
2022-07-26T20:52:05.046Z,25.90
2022-07-26T20:58:50.642Z,25.90
2022-07-26T21:01:17.387Z,26.00
2022-07-26T21:03:44.346Z,26.00
2022-07-26T21:06:11.188Z,25.40
2022-07-26T21:08:37.930Z,25.70
2022-07-26T21:11:04.690Z,26.00
2022-07-26T21:13:34.220Z,25.80
2022-07-26T21:16:01.066Z,25.90
2022-07-26T21:18:29.856Z,25.60
2022-07-26T21:20:57.576Z,25.10
2022-07-26T21:23:24.401Z,25.80
2022-07-26T21:25:58.140Z,25.70
2022-07-26T21:28:27.923Z,25.50
2022-07-26T21:30:54.868Z,25.50
2022-07-26T21:33:21.585Z,25.80
2022-07-26T21:35:48.455Z,25.40
2022-07-26T21:38:15.202Z,25.70
2022-07-26T21:40:42.045Z,25.90
2022-07-26T21:43:08.871Z,25.80
2022-07-26T21:45:35.785Z,25.50
2022-07-26T21:48:03.516Z,25.30
2022-07-26T21:50:30.453Z,25.70
2022-07-26T21:52:58.005Z,25.50
2022-07-26T21:56:02.444Z,25.60
2022-07-26T21:58:31.200Z,25.60
2022-07-26T22:01:06.537Z,25.50
2022-07-26T22:03:35.373Z,25.20
2022-07-26T22:06:02.206Z,25.70
2022-07-26T22:08:29.077Z,25.50
2022-07-26T22:10:55.834Z,25.60
2022-07-26T22:13:22.568Z,25.70
2022-07-26T22:15:49.542Z,25.70
2022-07-26T22:18:16.559Z,25.60
2022-07-26T22:20:44.181Z,25.60
2022-07-26T22:23:11.893Z,25.70
2022-07-26T22:25:39.234Z,25.50
2022-07-26T22:28:06.897Z,25.60
2022-07-26T22:30:33.909Z,25.60
2022-07-26T22:33:01.580Z,25.50
2022-07-26T22:35:34.942Z,25.50
2022-07-26T22:38:07.400Z,25.60
2022-07-26T22:40:34.209Z,25.50
2022-07-26T22:43:01.213Z,25.60
2022-07-26T22:45:28.992Z,25.60
2022-07-26T22:47:56.716Z,25.60
2022-07-26T22:50:24.701Z,25.50
2022-07-26T22:52:52.371Z,25.50
2022-07-26T22:59:38.045Z,25.40
2022-07-26T23:02:04.841Z,25.30
2022-07-26T23:04:31.671Z,25.40
2022-07-26T23:06:59.034Z,25.40
2022-07-26T23:09:27.064Z,25.50
2022-07-26T23:11:53.859Z,25.40
2022-07-26T23:14:20.630Z,25.40
2022-07-26T23:16:47.882Z,25.50
2022-07-26T23:19:15.196Z,25.50
2022-07-26T23:21:42.271Z,25.50
2022-07-26T23:24:09.097Z,25.40
2022-07-26T23:26:35.901Z,25.40
2022-07-26T23:29:02.826Z,25.40
2022-07-26T23:31:29.579Z,25.30
2022-07-26T23:33:56.285Z,25.30
2022-07-26T23:36:24.013Z,25.10
2022-07-26T23:38:50.758Z,25.10
2022-07-26T23:41:17.592Z,24.70
2022-07-26T23:48:17.217Z,24.20
2022-07-26T23:50:44.684Z,24.40
2022-07-26T23:53:12.342Z,23.90
2022-07-26T23:55:39.577Z,23.60
2022-07-26T23:58:07.148Z,23.60
